Terminal Aerodrome Forecast
Issued by NWS

Home | Current Version | Previous Version | Text Only | Print | Product List | Glossary On
Versions: 1 2 3 4 5 6 7 8 9 10 11 12 13
000
FTUS42 KTAE 301732
TAFECP
TAF
KECP 301732Z 3018/3118 VRB06KT P6SM SCT040
     FM301900 20007KT P6SM VCTS BKN040CB
      TEMPO 3019/3022 VRB15G30KT 1SM +TSRA
     FM310000 VRB04KT P6SM BKN250=

USA.gov is the U.S. government's official web portal to all federal, state and local government web resources and services.